sensor_id;sensor_type;location;lat;lon;timestamp;temperature;humidity
7516;DHT22;3799;47.184;8.538;2023-05-20T00:00:12;12.00;99.90
7516;DHT22;3799;47.184;8.538;2023-05-20T00:02:39;11.90;99.90
7516;DHT22;3799;47.184;8.538;2023-05-20T00:05:07;12.20;99.90
7516;DHT22;3799;47.184;8.538;2023-05-20T00:07:34;12.20;99.90
7516;DHT22;3799;47.184;8.538;2023-05-20T00:10:02;12.10;99.90
7516;DHT22;3799;47.184;8.538;2023-05-20T00:12:29;11.80;99.90
7516;DHT22;3799;47.184;8.538;2023-05-20T00:14:57;12.00;99.90
7516;DHT22;3799;47.184;8.538;2023-05-20T00:17:25;12.00;99.90
7516;DHT22;3799;47.184;8.538;2023-05-20T00:19:54;12.00;99.90
7516;DHT22;3799;47.184;8.538;2023-05-20T00:22:21;11.80;99.90
7516;DHT22;3799;47.184;8.538;2023-05-20T00:24:49;12.00;99.90
7516;DHT22;3799;47.184;8.538;2023-05-20T00:27:20;12.00;99.90
7516;DHT22;3799;47.184;8.538;2023-05-20T00:29:48;11.90;99.90
7516;DHT22;3799;47.184;8.538;2023-05-20T00:32:15;11.70;99.90
7516;DHT22;3799;47.184;8.538;2023-05-20T00:34:54;11.70;99.90
7516;DHT22;3799;47.184;8.538;2023-05-20T00:37:22;11.70;99.90
7516;DHT22;3799;47.184;8.538;2023-05-20T00:39:49;11.70;99.90
7516;DHT22;3799;47.184;8.538;2023-05-20T00:42:25;11.20;99.90
7516;DHT22;3799;47.184;8.538;2023-05-20T00:44:53;11.40;99.90
7516;DHT22;3799;47.184;8.538;2023-05-20T00:47:47;11.60;99.90
7516;DHT22;3799;47.184;8.538;2023-05-20T00:50:15;11.40;99.90
7516;DHT22;3799;47.184;8.538;2023-05-20T00:52:43;11.10;99.90
7516;DHT22;3799;47.184;8.538;2023-05-20T00:55:13;11.00;99.90
7516;DHT22;3799;47.184;8.538;2023-05-20T00:57:40;11.20;99.90
7516;DHT22;3799;47.184;8.538;2023-05-20T01:00:10;11.20;99.90
7516;DHT22;3799;47.184;8.538;2023-05-20T01:02:38;11.30;99.90
7516;DHT22;3799;47.184;8.538;2023-05-20T01:05:06;11.10;99.90
7516;DHT22;3799;47.184;8.538;2023-05-20T01:07:34;11.30;99.90
7516;DHT22;3799;47.184;8.538;2023-05-20T01:10:01;11.10;99.90
7516;DHT22;3799;47.184;8.538;2023-05-20T01:12:36;11.10;99.90
7516;DHT22;3799;47.184;8.538;2023-05-20T01:15:10;11.10;99.90
7516;DHT22;3799;47.184;8.538;2023-05-20T01:17:40;11.00;99.90
7516;DHT22;3799;47.184;8.538;2023-05-20T01:20:12;11.00;99.90
7516;DHT22;3799;47.184;8.538;2023-05-20T01:22:52;11.10;99.90
7516;DHT22;3799;47.184;8.538;2023-05-20T01:25:20;11.30;99.90
7516;DHT22;3799;47.184;8.538;2023-05-20T01:27:48;11.40;99.90
7516;DHT22;3799;47.184;8.538;2023-05-20T01:30:16;11.10;99.90
7516;DHT22;3799;47.184;8.538;2023-05-20T01:32:49;11.30;99.90
7516;DHT22;3799;47.184;8.538;2023-05-20T01:35:19;11.60;99.90
7516;DHT22;3799;47.184;8.538;2023-05-20T01:37:47;11.70;99.90
7516;DHT22;3799;47.184;8.538;2023-05-20T01:40:16;11.50;99.90
7516;DHT22;3799;47.184;8.538;2023-05-20T01:42:45;11.40;99.90
7516;DHT22;3799;47.184;8.538;2023-05-20T01:45:18;11.60;99.90
7516;DHT22;3799;47.184;8.538;2023-05-20T01:47:47;11.70;99.90
7516;DHT22;3799;47.184;8.538;2023-05-20T01:50:19;11.70;99.90
7516;DHT22;3799;47.184;8.538;2023-05-20T01:52:48;11.60;99.90
7516;DHT22;3799;47.184;8.538;2023-05-20T01:55:16;11.70;99.90
7516;DHT22;3799;47.184;8.538;2023-05-20T01:57:44;11.60;99.90
7516;DHT22;3799;47.184;8.538;2023-05-20T02:00:11;11.70;99.90
7516;DHT22;3799;47.184;8.538;2023-05-20T02:02:38;11.70;99.90
7516;DHT22;3799;47.184;8.538;2023-05-20T02:05:06;11.60;99.90
7516;DHT22;3799;47.184;8.538;2023-05-20T02:07:34;11.70;99.90
7516;DHT22;3799;47.184;8.538;2023-05-20T02:10:01;11.60;99.90
7516;DHT22;3799;47.184;8.538;2023-05-20T02:12:29;11.80;99.90
7516;DHT22;3799;47.184;8.538;2023-05-20T02:14:59;11.70;99.90
7516;DHT22;3799;47.184;8.538;2023-05-20T02:17:28;11.80;99.90
7516;DHT22;3799;47.184;8.538;2023-05-20T02:19:55;11.70;99.90
7516;DHT22;3799;47.184;8.538;2023-05-20T02:22:23;11.70;99.90
7516;DHT22;3799;47.184;8.538;2023-05-20T02:25:05;11.60;99.90
7516;DHT22;3799;47.184;8.538;2023-05-20T02:27:32;11.90;99.90
7516;DHT22;3799;47.184;8.538;2023-05-20T02:30:00;11.60;99.90
7516;DHT22;3799;47.184;8.538;2023-05-20T02:32:31;11.50;99.90
7516;DHT22;3799;47.184;8.538;2023-05-20T02:35:00;11.60;99.90
7516;DHT22;3799;47.184;8.538;2023-05-20T02:37:27;11.70;99.90
7516;DHT22;3799;47.184;8.538;2023-05-20T02:39:55;11.80;99.90
7516;DHT22;3799;47.184;8.538;2023-05-20T02:42:23;11.90;99.90
7516;DHT22;3799;47.184;8.538;2023-05-20T02:44:50;11.80;99.90
7516;DHT22;3799;47.184;8.538;2023-05-20T02:47:22;12.00;99.90
7516;DHT22;3799;47.184;8.538;2023-05-20T02:49:50;11.90;99.90
7516;DHT22;3799;47.184;8.538;2023-05-20T02:52:20;11.80;99.90
7516;DHT22;3799;47.184;8.538;2023-05-20T02:54:48;11.70;99.90
7516;DHT22;3799;47.184;8.538;2023-05-20T02:57:16;12.10;99.90
7516;DHT22;3799;47.184;8.538;2023-05-20T02:59:43;11.80;99.90
7516;DHT22;3799;47.184;8.538;2023-05-20T03:02:10;12.00;99.90
7516;DHT22;3799;47.184;8.538;2023-05-20T03:04:37;12.00;99.90
7516;DHT22;3799;47.184;8.538;2023-05-20T03:07:07;11.70;99.90
7516;DHT22;3799;47.184;8.538;2023-05-20T03:09:35;11.80;99.90
7516;DHT22;3799;47.184;8.538;2023-05-20T03:12:02;11.80;99.90
7516;DHT22;3799;47.184;8.538;2023-05-20T03:14:30;12.10;99.90
7516;DHT22;3799;47.184;8.538;2023-05-20T03:16:58;11.90;99.90
7516;DHT22;3799;47.184;8.538;2023-05-20T03:19:26;11.60;99.90
7516;DHT22;3799;47.184;8.538;2023-05-20T03:21:54;12.00;99.90
7516;DHT22;3799;47.184;8.538;2023-05-20T03:24:22;11.80;99.90
7516;DHT22;3799;47.184;8.538;2023-05-20T03:26:50;11.80;99.90
7516;DHT22;3799;47.184;8.538;2023-05-20T03:29:18;11.90;99.90
7516;DHT22;3799;47.184;8.538;2023-05-20T03:31:45;11.80;99.90
7516;DHT22;3799;47.184;8.538;2023-05-20T03:34:13;11.80;99.90
7516;DHT22;3799;47.184;8.538;2023-05-20T03:36:41;11.70;99.90
7516;DHT22;3799;47.184;8.538;2023-05-20T03:39:08;11.40;99.90
7516;DHT22;3799;47.184;8.538;2023-05-20T03:41:36;11.80;99.90
7516;DHT22;3799;47.184;8.538;2023-05-20T03:44:04;11.60;99.90
7516;DHT22;3799;47.184;8.538;2023-05-20T03:46:32;11.60;99.90
7516;DHT22;3799;47.184;8.538;2023-05-20T03:49:00;11.60;99.90
7516;DHT22;3799;47.184;8.538;2023-05-20T03:51:31;11.60;99.90
7516;DHT22;3799;47.184;8.538;2023-05-20T03:53:58;11.80;99.90
7516;DHT22;3799;47.184;8.538;2023-05-20T03:56:26;11.60;99.90
7516;DHT22;3799;47.184;8.538;2023-05-20T03:58:53;11.70;99.90
7516;DHT22;3799;47.184;8.538;2023-05-20T04:01:21;11.90;99.90
7516;DHT22;3799;47.184;8.538;2023-05-20T04:03:51;11.90;99.90
7516;DHT22;3799;47.184;8.538;2023-05-20T04:06:19;11.80;99.90
7516;DHT22;3799;47.184;8.538;2023-05-20T04:08:49;11.80;99.90
7516;DHT22;3799;47.184;8.538;2023-05-20T04:11:16;11.50;99.90
7516;DHT22;3799;47.184;8.538;2023-05-20T04:13:44;12.00;99.90
7516;DHT22;3799;47.184;8.538;2023-05-20T04:16:12;12.10;99.90
7516;DHT22;3799;47.184;8.538;2023-05-20T04:18:44;12.00;99.90
7516;DHT22;3799;47.184;8.538;2023-05-20T04:21:12;11.90;99.90
7516;DHT22;3799;47.184;8.538;2023-05-20T04:23:49;11.90;99.90
7516;DHT22;3799;47.184;8.538;2023-05-20T04:26:16;11.60;99.90
7516;DHT22;3799;47.184;8.538;2023-05-20T04:28:44;11.60;99.90
7516;DHT22;3799;47.184;8.538;2023-05-20T04:31:15;11.60;99.90
7516;DHT22;3799;47.184;8.538;2023-05-20T04:33:42;11.70;99.90
7516;DHT22;3799;47.184;8.538;2023-05-20T04:36:30;11.70;99.90
7516;DHT22;3799;47.184;8.538;2023-05-20T04:38:57;12.10;99.90
7516;DHT22;3799;47.184;8.538;2023-05-20T04:41:25;11.90;99.90
7516;DHT22;3799;47.184;8.538;2023-05-20T04:43:53;11.80;99.90
7516;DHT22;3799;47.184;8.538;2023-05-20T04:46:26;11.70;99.90
7516;DHT22;3799;47.184;8.538;2023-05-20T04:48:53;12.00;99.90
7516;DHT22;3799;47.184;8.538;2023-05-20T04:51:21;12.10;99.90
7516;DHT22;3799;47.184;8.538;2023-05-20T04:53:48;11.90;99.90
7516;DHT22;3799;47.184;8.538;2023-05-20T04:56:17;11.90;99.90
7516;DHT22;3799;47.184;8.538;2023-05-20T04:58:44;12.20;99.90
7516;DHT22;3799;47.184;8.538;2023-05-20T05:01:12;12.20;99.90
7516;DHT22;3799;47.184;8.538;2023-05-20T05:03:39;12.40;99.90
7516;DHT22;3799;47.184;8.538;2023-05-20T05:06:09;12.30;99.90
7516;DHT22;3799;47.184;8.538;2023-05-20T05:08:37;12.40;99.90
7516;DHT22;3799;47.184;8.538;2023-05-20T05:11:07;12.30;99.90
7516;DHT22;3799;47.184;8.538;2023-05-20T05:13:34;12.20;99.90
7516;DHT22;3799;47.184;8.538;2023-05-20T05:16:02;12.60;99.90
7516;DHT22;3799;47.184;8.538;2023-05-20T05:18:29;12.50;99.90
7516;DHT22;3799;47.184;8.538;2023-05-20T05:21:06;12.40;99.90
7516;DHT22;3799;47.184;8.538;2023-05-20T05:23:33;12.20;99.90
7516;DHT22;3799;47.184;8.538;2023-05-20T05:26:00;12.30;99.90
7516;DHT22;3799;47.184;8.538;2023-05-20T05:28:31;12.40;99.90
7516;DHT22;3799;47.184;8.538;2023-05-20T05:30:58;12.70;99.90
7516;DHT22;3799;47.184;8.538;2023-05-20T05:33:28;12.70;99.90
7516;DHT22;3799;47.184;8.538;2023-05-20T05:35:56;12.70;99.90
7516;DHT22;3799;47.184;8.538;2023-05-20T05:38:27;12.90;99.90
7516;DHT22;3799;47.184;8.538;2023-05-20T05:40:54;12.90;99.90
7516;DHT22;3799;47.184;8.538;2023-05-20T05:43:22;12.90;99.90
7516;DHT22;3799;47.184;8.538;2023-05-20T05:45:50;13.30;99.90
7516;DHT22;3799;47.184;8.538;2023-05-20T05:48:17;13.30;99.90
7516;DHT22;3799;47.184;8.538;2023-05-20T05:50:45;13.30;99.90
7516;DHT22;3799;47.184;8.538;2023-05-20T05:53:13;13.50;99.90
7516;DHT22;3799;47.184;8.538;2023-05-20T05:55:40;13.10;99.90
7516;DHT22;3799;47.184;8.538;2023-05-20T05:58:07;13.20;99.90
7516;DHT22;3799;47.184;8.538;2023-05-20T06:00:35;13.60;99.90
7516;DHT22;3799;47.184;8.538;2023-05-20T06:03:02;13.30;99.90
7516;DHT22;3799;47.184;8.538;2023-05-20T06:05:30;13.40;99.90
7516;DHT22;3799;47.184;8.538;2023-05-20T06:08:12;13.50;99.90
7516;DHT22;3799;47.184;8.538;2023-05-20T06:10:39;13.60;99.90
7516;DHT22;3799;47.184;8.538;2023-05-20T06:13:07;13.50;99.90
7516;DHT22;3799;47.184;8.538;2023-05-20T06:15:34;13.90;99.90
7516;DHT22;3799;47.184;8.538;2023-05-20T06:18:03;13.90;99.90
7516;DHT22;3799;47.184;8.538;2023-05-20T06:20:30;13.90;99.90
7516;DHT22;3799;47.184;8.538;2023-05-20T06:22:57;13.90;99.90
7516;DHT22;3799;47.184;8.538;2023-05-20T06:25:25;14.00;99.90
7516;DHT22;3799;47.184;8.538;2023-05-20T06:27:53;13.90;99.90
7516;DHT22;3799;47.184;8.538;2023-05-20T06:30:20;13.80;99.90
7516;DHT22;3799;47.184;8.538;2023-05-20T06:32:48;13.80;99.90
7516;DHT22;3799;47.184;8.538;2023-05-20T06:35:15;13.90;99.90
7516;DHT22;3799;47.184;8.538;2023-05-20T06:37:42;14.00;99.90
7516;DHT22;3799;47.184;8.538;2023-05-20T06:40:11;14.20;99.90
7516;DHT22;3799;47.184;8.538;2023-05-20T06:42:38;13.90;99.90
7516;DHT22;3799;47.184;8.538;2023-05-20T06:45:06;14.30;99.90
7516;DHT22;3799;47.184;8.538;2023-05-20T06:47:35;14.50;99.90
7516;DHT22;3799;47.184;8.538;2023-05-20T06:50:02;14.20;99.90
7516;DHT22;3799;47.184;8.538;2023-05-20T06:52:29;14.50;99.90
7516;DHT22;3799;47.184;8.538;2023-05-20T06:54:57;14.30;99.90
7516;DHT22;3799;47.184;8.538;2023-05-20T06:58:00;14.60;99.90
7516;DHT22;3799;47.184;8.538;2023-05-20T07:00:50;14.50;99.90
7516;DHT22;3799;47.184;8.538;2023-05-20T07:03:17;14.60;99.90
7516;DHT22;3799;47.184;8.538;2023-05-20T07:05:45;14.70;99.90
7516;DHT22;3799;47.184;8.538;2023-05-20T07:08:12;14.40;99.90
7516;DHT22;3799;47.184;8.538;2023-05-20T07:10:39;14.40;99.90
7516;DHT22;3799;47.184;8.538;2023-05-20T07:13:07;14.30;99.90
7516;DHT22;3799;47.184;8.538;2023-05-20T07:15:34;14.40;99.90
7516;DHT22;3799;47.184;8.538;2023-05-20T07:18:02;14.50;99.90
7516;DHT22;3799;47.184;8.538;2023-05-20T07:20:29;14.20;99.90
7516;DHT22;3799;47.184;8.538;2023-05-20T07:22:57;14.40;99.90
7516;DHT22;3799;47.184;8.538;2023-05-20T07:25:24;14.40;99.90
7516;DHT22;3799;47.184;8.538;2023-05-20T07:27:52;14.30;99.90
7516;DHT22;3799;47.184;8.538;2023-05-20T07:30:19;14.30;99.90
7516;DHT22;3799;47.184;8.538;2023-05-20T07:32:47;14.20;99.90
7516;DHT22;3799;47.184;8.538;2023-05-20T07:35:15;14.30;99.90
7516;DHT22;3799;47.184;8.538;2023-05-20T07:37:42;14.30;99.90
7516;DHT22;3799;47.184;8.538;2023-05-20T07:40:10;14.30;99.90
7516;DHT22;3799;47.184;8.538;2023-05-20T07:42:41;14.30;99.90
7516;DHT22;3799;47.184;8.538;2023-05-20T07:45:09;14.00;99.90
7516;DHT22;3799;47.184;8.538;2023-05-20T07:47:37;14.30;99.90
7516;DHT22;3799;47.184;8.538;2023-05-20T07:50:04;14.40;99.90
7516;DHT22;3799;47.184;8.538;2023-05-20T07:52:32;14.50;99.90
7516;DHT22;3799;47.184;8.538;2023-05-20T07:55:14;14.60;99.90
7516;DHT22;3799;47.184;8.538;2023-05-20T07:57:42;14.30;99.90
7516;DHT22;3799;47.184;8.538;2023-05-20T08:00:11;14.40;99.90
7516;DHT22;3799;47.184;8.538;2023-05-20T08:02:47;14.70;99.90
7516;DHT22;3799;47.184;8.538;2023-05-20T08:05:18;14.70;99.90
7516;DHT22;3799;47.184;8.538;2023-05-20T08:07:45;14.80;99.90
7516;DHT22;3799;47.184;8.538;2023-05-20T08:10:16;14.70;99.90
7516;DHT22;3799;47.184;8.538;2023-05-20T08:12:45;15.00;99.90
7516;DHT22;3799;47.184;8.538;2023-05-20T08:15:14;15.10;99.90
7516;DHT22;3799;47.184;8.538;2023-05-20T08:17:41;15.10;99.90
7516;DHT22;3799;47.184;8.538;2023-05-20T08:20:10;15.30;99.90
7516;DHT22;3799;47.184;8.538;2023-05-20T08:22:41;15.30;99.90
7516;DHT22;3799;47.184;8.538;2023-05-20T08:25:08;15.40;99.90
7516;DHT22;3799;47.184;8.538;2023-05-20T08:27:36;15.40;99.90
7516;DHT22;3799;47.184;8.538;2023-05-20T08:30:04;15.40;99.90
7516;DHT22;3799;47.184;8.538;2023-05-20T08:32:37;15.40;99.90
7516;DHT22;3799;47.184;8.538;2023-05-20T08:35:05;15.60;99.90
7516;DHT22;3799;47.184;8.538;2023-05-20T08:37:33;15.60;99.90
7516;DHT22;3799;47.184;8.538;2023-05-20T08:40:00;15.60;99.90
7516;DHT22;3799;47.184;8.538;2023-05-20T08:42:28;15.40;99.90
7516;DHT22;3799;47.184;8.538;2023-05-20T08:44:57;15.50;99.90
7516;DHT22;3799;47.184;8.538;2023-05-20T08:47:28;15.50;99.90
7516;DHT22;3799;47.184;8.538;2023-05-20T08:49:57;15.70;99.90
7516;DHT22;3799;47.184;8.538;2023-05-20T08:52:32;15.70;99.90
7516;DHT22;3799;47.184;8.538;2023-05-20T08:55:00;15.90;99.90
7516;DHT22;3799;47.184;8.538;2023-05-20T08:57:28;15.80;99.90
7516;DHT22;3799;47.184;8.538;2023-05-20T08:59:59;16.20;99.90
7516;DHT22;3799;47.184;8.538;2023-05-20T09:02:36;16.00;99.90
7516;DHT22;3799;47.184;8.538;2023-05-20T09:05:05;16.40;99.90
7516;DHT22;3799;47.184;8.538;2023-05-20T09:07:33;16.00;99.90
7516;DHT22;3799;47.184;8.538;2023-05-20T09:10:04;16.10;99.90
7516;DHT22;3799;47.184;8.538;2023-05-20T09:12:35;16.20;99.90
7516;DHT22;3799;47.184;8.538;2023-05-20T09:15:03;16.00;99.90
7516;DHT22;3799;47.184;8.538;2023-05-20T09:17:36;16.00;99.90
7516;DHT22;3799;47.184;8.538;2023-05-20T09:20:09;15.90;99.90
7516;DHT22;3799;47.184;8.538;2023-05-20T09:22:38;16.00;99.90
7516;DHT22;3799;47.184;8.538;2023-05-20T09:25:08;16.20;99.90
7516;DHT22;3799;47.184;8.538;2023-05-20T09:27:40;15.80;99.90
7516;DHT22;3799;47.184;8.538;2023-05-20T09:30:08;16.00;99.90
7516;DHT22;3799;47.184;8.538;2023-05-20T09:32:39;15.80;99.90
7516;DHT22;3799;47.184;8.538;2023-05-20T09:35:13;15.60;99.90
7516;DHT22;3799;47.184;8.538;2023-05-20T09:37:42;15.80;99.90
7516;DHT22;3799;47.184;8.538;2023-05-20T09:40:14;15.90;99.90
7516;DHT22;3799;47.184;8.538;2023-05-20T09:42:49;15.80;99.90
7516;DHT22;3799;47.184;8.538;2023-05-20T09:45:18;16.00;99.90
7516;DHT22;3799;47.184;8.538;2023-05-20T09:47:45;15.80;99.90
7516;DHT22;3799;47.184;8.538;2023-05-20T09:50:13;16.00;99.90
7516;DHT22;3799;47.184;8.538;2023-05-20T09:52:43;15.90;99.90
7516;DHT22;3799;47.184;8.538;2023-05-20T09:55:10;15.90;99.90
7516;DHT22;3799;47.184;8.538;2023-05-20T09:57:38;16.20;99.90
7516;DHT22;3799;47.184;8.538;2023-05-20T10:00:06;16.20;99.90
7516;DHT22;3799;47.184;8.538;2023-05-20T10:02:35;16.10;99.90
7516;DHT22;3799;47.184;8.538;2023-05-20T10:05:06;16.10;99.90
7516;DHT22;3799;47.184;8.538;2023-05-20T10:13:10;16.80;99.90
7516;DHT22;3799;47.184;8.538;2023-05-20T10:16:16;17.00;99.90
7516;DHT22;3799;47.184;8.538;2023-05-20T10:19:02;16.80;99.90
7516;DHT22;3799;47.184;8.538;2023-05-20T10:21:33;17.00;99.90
7516;DHT22;3799;47.184;8.538;2023-05-20T10:24:08;16.80;99.90
7516;DHT22;3799;47.184;8.538;2023-05-20T10:26:36;17.00;99.90
7516;DHT22;3799;47.184;8.538;2023-05-20T10:29:17;17.00;99.90
7516;DHT22;3799;47.184;8.538;2023-05-20T10:31:51;17.50;99.90
7516;DHT22;3799;47.184;8.538;2023-05-20T10:34:21;17.70;99.90
7516;DHT22;3799;47.184;8.538;2023-05-20T10:39:31;18.00;99.90
7516;DHT22;3799;47.184;8.538;2023-05-20T10:42:10;18.20;99.90
7516;DHT22;3799;47.184;8.538;2023-05-20T10:44:42;18.30;99.90
7516;DHT22;3799;47.184;8.538;2023-05-20T10:47:14;18.20;99.90
7516;DHT22;3799;47.184;8.538;2023-05-20T10:49:52;18.30;99.90
7516;DHT22;3799;47.184;8.538;2023-05-20T10:52:20;18.30;99.90
7516;DHT22;3799;47.184;8.538;2023-05-20T10:54:56;18.20;99.90
7516;DHT22;3799;47.184;8.538;2023-05-20T10:57:27;18.50;99.90
7516;DHT22;3799;47.184;8.538;2023-05-20T10:59:55;18.50;99.90
7516;DHT22;3799;47.184;8.538;2023-05-20T11:02:23;18.50;99.90
7516;DHT22;3799;47.184;8.538;2023-05-20T11:04:58;18.70;99.90
7516;DHT22;3799;47.184;8.538;2023-05-20T11:07:41;18.50;99.90
7516;DHT22;3799;47.184;8.538;2023-05-20T11:10:09;18.80;99.90
7516;DHT22;3799;47.184;8.538;2023-05-20T11:12:43;19.00;99.90
7516;DHT22;3799;47.184;8.538;2023-05-20T11:15:10;18.70;98.70
7516;DHT22;3799;47.184;8.538;2023-05-20T11:17:53;18.90;99.30
7516;DHT22;3799;47.184;8.538;2023-05-20T11:20:22;18.90;98.60
7516;DHT22;3799;47.184;8.538;2023-05-20T11:22:51;19.20;98.50
7516;DHT22;3799;47.184;8.538;2023-05-20T11:25:18;19.10;97.80
7516;DHT22;3799;47.184;8.538;2023-05-20T11:27:46;19.40;97.60
7516;DHT22;3799;47.184;8.538;2023-05-20T11:30:14;19.30;96.80
7516;DHT22;3799;47.184;8.538;2023-05-20T11:32:59;19.50;96.60
7516;DHT22;3799;47.184;8.538;2023-05-20T11:35:29;19.40;96.70
7516;DHT22;3799;47.184;8.538;2023-05-20T11:38:01;19.10;96.10
7516;DHT22;3799;47.184;8.538;2023-05-20T11:40:31;18.70;96.70
7516;DHT22;3799;47.184;8.538;2023-05-20T11:43:10;18.60;97.10
7516;DHT22;3799;47.184;8.538;2023-05-20T11:45:42;18.70;98.00
7516;DHT22;3799;47.184;8.538;2023-05-20T11:48:11;18.40;97.90
7516;DHT22;3799;47.184;8.538;2023-05-20T11:50:41;18.20;97.50
7516;DHT22;3799;47.184;8.538;2023-05-20T11:53:10;18.20;98.60
7516;DHT22;3799;47.184;8.538;2023-05-20T11:55:52;18.40;98.90
7516;DHT22;3799;47.184;8.538;2023-05-20T11:58:23;18.30;98.90
7516;DHT22;3799;47.184;8.538;2023-05-20T12:00:52;18.50;98.50
7516;DHT22;3799;47.184;8.538;2023-05-20T12:03:31;18.60;98.80
7516;DHT22;3799;47.184;8.538;2023-05-20T12:06:03;18.70;98.40
7516;DHT22;3799;47.184;8.538;2023-05-20T12:08:30;18.90;98.00
7516;DHT22;3799;47.184;8.538;2023-05-20T12:10:57;19.10;97.50
7516;DHT22;3799;47.184;8.538;2023-05-20T12:13:26;19.40;97.50
7516;DHT22;3799;47.184;8.538;2023-05-20T12:15:53;19.00;96.50
7516;DHT22;3799;47.184;8.538;2023-05-20T12:18:21;19.30;96.70
7516;DHT22;3799;47.184;8.538;2023-05-20T12:20:52;19.70;96.80
7516;DHT22;3799;47.184;8.538;2023-05-20T12:23:19;19.90;95.40
7516;DHT22;3799;47.184;8.538;2023-05-20T12:26:01;19.90;94.80
7516;DHT22;3799;47.184;8.538;2023-05-20T12:28:29;20.00;93.60
7516;DHT22;3799;47.184;8.538;2023-05-20T12:30:58;20.20;93.90
7516;DHT22;3799;47.184;8.538;2023-05-20T12:33:25;20.20;93.90
7516;DHT22;3799;47.184;8.538;2023-05-20T12:35:53;20.40;93.80
7516;DHT22;3799;47.184;8.538;2023-05-20T12:38:21;20.70;92.50
7516;DHT22;3799;47.184;8.538;2023-05-20T12:40:49;20.70;91.70
7516;DHT22;3799;47.184;8.538;2023-05-20T12:43:16;20.90;91.30
7516;DHT22;3799;47.184;8.538;2023-05-20T12:45:57;20.60;90.70
7516;DHT22;3799;47.184;8.538;2023-05-20T12:48:27;20.70;90.80
7516;DHT22;3799;47.184;8.538;2023-05-20T12:50:57;20.70;90.40
7516;DHT22;3799;47.184;8.538;2023-05-20T12:53:27;20.50;89.90
7516;DHT22;3799;47.184;8.538;2023-05-20T12:55:55;20.50;89.80
7516;DHT22;3799;47.184;8.538;2023-05-20T12:58:23;20.10;90.60
7516;DHT22;3799;47.184;8.538;2023-05-20T13:00:53;19.90;91.30
7516;DHT22;3799;47.184;8.538;2023-05-20T13:03:34;19.90;91.50
7516;DHT22;3799;47.184;8.538;2023-05-20T13:06:03;19.70;92.00
7516;DHT22;3799;47.184;8.538;2023-05-20T13:08:34;19.40;92.30
7516;DHT22;3799;47.184;8.538;2023-05-20T13:11:16;19.40;93.00
7516;DHT22;3799;47.184;8.538;2023-05-20T13:13:43;19.50;93.50
7516;DHT22;3799;47.184;8.538;2023-05-20T13:16:10;19.30;93.60
7516;DHT22;3799;47.184;8.538;2023-05-20T13:18:38;19.20;93.70
7516;DHT22;3799;47.184;8.538;2023-05-20T13:21:05;19.30;94.00
7516;DHT22;3799;47.184;8.538;2023-05-20T13:23:34;18.80;94.10
7516;DHT22;3799;47.184;8.538;2023-05-20T13:26:03;19.00;94.40
7516;DHT22;3799;47.184;8.538;2023-05-20T13:28:31;18.90;94.50
7516;DHT22;3799;47.184;8.538;2023-05-20T13:31:14;18.90;94.40
7516;DHT22;3799;47.184;8.538;2023-05-20T13:33:44;19.00;95.40
7516;DHT22;3799;47.184;8.538;2023-05-20T13:36:18;19.00;94.80
7516;DHT22;3799;47.184;8.538;2023-05-20T13:38:45;18.80;95.00
7516;DHT22;3799;47.184;8.538;2023-05-20T13:41:13;18.80;94.90
7516;DHT22;3799;47.184;8.538;2023-05-20T13:43:45;18.90;95.50
7516;DHT22;3799;47.184;8.538;2023-05-20T13:46:13;19.00;95.50
7516;DHT22;3799;47.184;8.538;2023-05-20T13:48:40;18.60;95.70
7516;DHT22;3799;47.184;8.538;2023-05-20T13:51:09;18.70;95.80
7516;DHT22;3799;47.184;8.538;2023-05-20T13:53:38;18.80;96.10
7516;DHT22;3799;47.184;8.538;2023-05-20T13:56:05;18.90;96.20
7516;DHT22;3799;47.184;8.538;2023-05-20T13:58:36;19.00;96.70
7516;DHT22;3799;47.184;8.538;2023-05-20T14:01:03;18.50;96.70
7516;DHT22;3799;47.184;8.538;2023-05-20T14:03:31;18.50;97.30
7516;DHT22;3799;47.184;8.538;2023-05-20T14:05:59;18.50;98.00
7516;DHT22;3799;47.184;8.538;2023-05-20T14:08:27;18.40;98.60
7516;DHT22;3799;47.184;8.538;2023-05-20T14:10:54;18.80;99.10
7516;DHT22;3799;47.184;8.538;2023-05-20T14:13:22;18.60;98.70
7516;DHT22;3799;47.184;8.538;2023-05-20T14:15:50;18.50;99.00
7516;DHT22;3799;47.184;8.538;2023-05-20T14:18:18;18.60;99.10
7516;DHT22;3799;47.184;8.538;2023-05-20T14:20:45;18.60;99.20
7516;DHT22;3799;47.184;8.538;2023-05-20T14:23:13;18.70;98.90
7516;DHT22;3799;47.184;8.538;2023-05-20T14:25:41;18.40;99.00
7516;DHT22;3799;47.184;8.538;2023-05-20T14:28:09;18.70;99.00
7516;DHT22;3799;47.184;8.538;2023-05-20T14:30:37;18.20;98.90
7516;DHT22;3799;47.184;8.538;2023-05-20T14:33:25;18.10;99.30
7516;DHT22;3799;47.184;8.538;2023-05-20T14:36:05;18.00;99.90
7516;DHT22;3799;47.184;8.538;2023-05-20T14:38:33;18.10;99.90
7516;DHT22;3799;47.184;8.538;2023-05-20T14:41:00;17.90;99.90
7516;DHT22;3799;47.184;8.538;2023-05-20T14:43:27;17.80;99.90
7516;DHT22;3799;47.184;8.538;2023-05-20T14:45:54;17.50;99.90
7516;DHT22;3799;47.184;8.538;2023-05-20T14:48:22;17.80;99.90
7516;DHT22;3799;47.184;8.538;2023-05-20T14:50:49;17.50;99.90
7516;DHT22;3799;47.184;8.538;2023-05-20T14:53:18;17.40;99.90
7516;DHT22;3799;47.184;8.538;2023-05-20T14:55:45;17.40;99.90
7516;DHT22;3799;47.184;8.538;2023-05-20T14:58:12;17.10;99.90
7516;DHT22;3799;47.184;8.538;2023-05-20T15:00:40;17.10;99.90
7516;DHT22;3799;47.184;8.538;2023-05-20T15:03:08;17.10;99.90
7516;DHT22;3799;47.184;8.538;2023-05-20T15:05:39;16.90;99.90
7516;DHT22;3799;47.184;8.538;2023-05-20T15:08:08;17.10;99.90
7516;DHT22;3799;47.184;8.538;2023-05-20T15:10:35;16.90;99.90
7516;DHT22;3799;47.184;8.538;2023-05-20T15:13:03;17.10;99.90
7516;DHT22;3799;47.184;8.538;2023-05-20T15:15:31;16.90;99.90
7516;DHT22;3799;47.184;8.538;2023-05-20T15:17:59;17.00;99.90
7516;DHT22;3799;47.184;8.538;2023-05-20T15:20:27;16.80;99.90
7516;DHT22;3799;47.184;8.538;2023-05-20T15:22:55;16.70;99.90
7516;DHT22;3799;47.184;8.538;2023-05-20T15:25:24;16.90;99.90
7516;DHT22;3799;47.184;8.538;2023-05-20T15:27:51;16.90;99.90
7516;DHT22;3799;47.184;8.538;2023-05-20T15:30:19;17.10;99.90
7516;DHT22;3799;47.184;8.538;2023-05-20T15:32:48;16.80;99.90
7516;DHT22;3799;47.184;8.538;2023-05-20T15:35:16;17.10;99.90
7516;DHT22;3799;47.184;8.538;2023-05-20T15:37:43;16.80;99.90
7516;DHT22;3799;47.184;8.538;2023-05-20T15:40:26;17.00;99.90
7516;DHT22;3799;47.184;8.538;2023-05-20T15:42:54;16.70;99.90
7516;DHT22;3799;47.184;8.538;2023-05-20T15:45:23;16.80;99.90
7516;DHT22;3799;47.184;8.538;2023-05-20T15:48:01;16.60;99.90
7516;DHT22;3799;47.184;8.538;2023-05-20T15:50:29;16.70;99.90
7516;DHT22;3799;47.184;8.538;2023-05-20T15:52:56;16.50;99.90
7516;DHT22;3799;47.184;8.538;2023-05-20T15:55:24;16.70;99.90
7516;DHT22;3799;47.184;8.538;2023-05-20T15:57:52;16.40;99.90
7516;DHT22;3799;47.184;8.538;2023-05-20T16:00:20;16.70;99.90
7516;DHT22;3799;47.184;8.538;2023-05-20T16:02:48;16.60;99.90
7516;DHT22;3799;47.184;8.538;2023-05-20T16:05:16;16.50;99.90
7516;DHT22;3799;47.184;8.538;2023-05-20T16:07:44;16.40;99.90
7516;DHT22;3799;47.184;8.538;2023-05-20T16:10:15;16.40;99.90
7516;DHT22;3799;47.184;8.538;2023-05-20T16:12:43;16.40;99.90
7516;DHT22;3799;47.184;8.538;2023-05-20T16:15:11;16.30;99.90
7516;DHT22;3799;47.184;8.538;2023-05-20T16:17:38;16.40;99.90
7516;DHT22;3799;47.184;8.538;2023-05-20T16:20:06;16.50;99.90
7516;DHT22;3799;47.184;8.538;2023-05-20T16:22:34;16.30;99.90
7516;DHT22;3799;47.184;8.538;2023-05-20T16:25:02;16.40;99.90